sensor_id;sensor_type;location;lat;lon;timestamp;P1;durP1;ratioP1;P2;durP2;ratioP2
51298;SDS011;37382;45.192;9.790;2023-04-06T04:05:54;16.70;;;8.10;;
51298;SDS011;37382;45.192;9.790;2023-04-06T04:08:25;21.92;;;8.40;;
51298;SDS011;37382;45.192;9.790;2023-04-06T04:13:31;17.75;;;8.27;;
51298;SDS011;37382;45.192;9.790;2023-04-06T04:15:59;11.98;;;7.88;;
51298;SDS011;37382;45.192;9.790;2023-04-06T04:18:27;16.40;;;8.05;;
51298;SDS011;37382;45.192;9.790;2023-04-06T04:20:55;21.60;;;8.82;;
51298;SDS011;37382;45.192;9.790;2023-04-06T04:23:23;15.80;;;7.90;;
51298;SDS011;37382;45.192;9.790;2023-04-06T04:25:51;14.50;;;8.10;;
51298;SDS011;37382;45.192;9.790;2023-04-06T04:28:19;14.68;;;8.02;;
51298;SDS011;37382;45.192;9.790;2023-04-06T04:30:47;11.05;;;7.75;;
51298;SDS011;37382;45.192;9.790;2023-04-06T04:33:15;14.18;;;8.75;;
51298;SDS011;37382;45.192;9.790;2023-04-06T04:35:44;12.65;;;8.55;;
51298;SDS011;37382;45.192;9.790;2023-04-06T04:38:16;11.77;;;7.78;;
51298;SDS011;37382;45.192;9.790;2023-04-06T04:40:48;18.63;;;8.32;;
51298;SDS011;37382;45.192;9.790;2023-04-06T04:43:16;16.45;;;8.23;;
51298;SDS011;37382;45.192;9.790;2023-04-06T04:45:44;14.80;;;8.40;;
51298;SDS011;37382;45.192;9.790;2023-04-06T04:48:22;15.98;;;8.32;;
51298;SDS011;37382;45.192;9.790;2023-04-06T04:50:55;13.65;;;8.10;;
51298;SDS011;37382;45.192;9.790;2023-04-06T04:53:27;21.95;;;8.82;;
51298;SDS011;37382;45.192;9.790;2023-04-06T04:56:01;11.45;;;8.02;;
51298;SDS011;37382;45.192;9.790;2023-04-06T04:58:29;30.70;;;9.13;;
51298;SDS011;37382;45.192;9.790;2023-04-06T05:00:59;12.15;;;8.07;;
51298;SDS011;37382;45.192;9.790;2023-04-06T05:03:27;17.92;;;8.93;;
51298;SDS011;37382;45.192;9.790;2023-04-06T05:06:03;16.10;;;8.70;;
51298;SDS011;37382;45.192;9.790;2023-04-06T05:08:34;12.95;;;8.80;;
51298;SDS011;37382;45.192;9.790;2023-04-06T05:11:01;26.80;;;8.45;;
51298;SDS011;37382;45.192;9.790;2023-04-06T05:16:07;12.32;;;8.05;;
51298;SDS011;37382;45.192;9.790;2023-04-06T05:18:35;15.43;;;8.63;;
51298;SDS011;37382;45.192;9.790;2023-04-06T05:21:05;19.92;;;9.30;;
51298;SDS011;37382;45.192;9.790;2023-04-06T05:23:45;16.50;;;9.85;;
51298;SDS011;37382;45.192;9.790;2023-04-06T05:26:12;17.02;;;9.30;;
51298;SDS011;37382;45.192;9.790;2023-04-06T05:28:40;19.40;;;9.60;;
51298;SDS011;37382;45.192;9.790;2023-04-06T05:31:10;21.48;;;8.77;;
51298;SDS011;37382;45.192;9.790;2023-04-06T05:33:45;15.45;;;8.63;;
51298;SDS011;37382;45.192;9.790;2023-04-06T05:36:15;16.42;;;8.65;;
51298;SDS011;37382;45.192;9.790;2023-04-06T05:38:45;20.98;;;8.60;;
51298;SDS011;37382;45.192;9.790;2023-04-06T05:41:28;13.82;;;8.93;;
51298;SDS011;37382;45.192;9.790;2023-04-06T05:43:56;16.10;;;8.15;;
51298;SDS011;37382;45.192;9.790;2023-04-06T05:46:25;14.13;;;8.38;;
51298;SDS011;37382;45.192;9.790;2023-04-06T05:48:55;14.38;;;7.68;;
51298;SDS011;37382;45.192;9.790;2023-04-06T05:51:26;16.30;;;8.45;;
51298;SDS011;37382;45.192;9.790;2023-04-06T05:53:54;17.83;;;9.20;;
51298;SDS011;37382;45.192;9.790;2023-04-06T05:56:22;24.20;;;9.15;;
51298;SDS011;37382;45.192;9.790;2023-04-06T05:58:51;21.48;;;9.23;;
51298;SDS011;37382;45.192;9.790;2023-04-06T06:01:24;21.70;;;9.20;;
51298;SDS011;37382;45.192;9.790;2023-04-06T06:03:51;23.42;;;9.75;;
51298;SDS011;37382;45.192;9.790;2023-04-06T06:06:20;17.52;;;9.75;;
51298;SDS011;37382;45.192;9.790;2023-04-06T06:09:08;23.83;;;9.68;;
51298;SDS011;37382;45.192;9.790;2023-04-06T06:11:42;21.60;;;11.82;;
51298;SDS011;37382;45.192;9.790;2023-04-06T06:14:13;21.13;;;9.85;;
51298;SDS011;37382;45.192;9.790;2023-04-06T06:16:41;13.82;;;8.70;;
51298;SDS011;37382;45.192;9.790;2023-04-06T06:19:11;12.77;;;7.65;;
51298;SDS011;37382;45.192;9.790;2023-04-06T06:21:39;15.73;;;8.02;;
51298;SDS011;37382;45.192;9.790;2023-04-06T06:24:08;19.08;;;8.43;;
51298;SDS011;37382;45.192;9.790;2023-04-06T06:26:37;13.02;;;8.10;;
51298;SDS011;37382;45.192;9.790;2023-04-06T06:29:07;17.35;;;8.23;;
51298;SDS011;37382;45.192;9.790;2023-04-06T06:31:37;25.90;;;9.20;;
51298;SDS011;37382;45.192;9.790;2023-04-06T06:34:05;15.63;;;8.95;;
51298;SDS011;37382;45.192;9.790;2023-04-06T06:36:35;15.13;;;9.35;;
51298;SDS011;37382;45.192;9.790;2023-04-06T06:39:06;16.27;;;10.25;;
51298;SDS011;37382;45.192;9.790;2023-04-06T06:41:34;21.75;;;11.55;;
51298;SDS011;37382;45.192;9.790;2023-04-06T06:44:03;16.75;;;10.90;;
51298;SDS011;37382;45.192;9.790;2023-04-06T06:46:31;22.55;;;9.90;;
51298;SDS011;37382;45.192;9.790;2023-04-06T06:48:59;19.92;;;8.75;;
51298;SDS011;37382;45.192;9.790;2023-04-06T06:51:27;67.07;;;11.35;;
51298;SDS011;37382;45.192;9.790;2023-04-06T06:53:55;20.95;;;8.77;;
51298;SDS011;37382;45.192;9.790;2023-04-06T06:56:22;20.60;;;9.00;;
51298;SDS011;37382;45.192;9.790;2023-04-06T06:58:51;15.27;;;8.15;;
51298;SDS011;37382;45.192;9.790;2023-04-06T07:01:19;17.40;;;9.13;;
51298;SDS011;37382;45.192;9.790;2023-04-06T07:03:48;24.00;;;9.60;;
51298;SDS011;37382;45.192;9.790;2023-04-06T07:06:15;15.93;;;8.95;;
51298;SDS011;37382;45.192;9.790;2023-04-06T07:08:42;16.67;;;9.52;;
51298;SDS011;37382;45.192;9.790;2023-04-06T07:11:10;18.25;;;9.27;;
51298;SDS011;37382;45.192;9.790;2023-04-06T07:13:37;16.40;;;9.02;;
51298;SDS011;37382;45.192;9.790;2023-04-06T07:16:05;16.50;;;8.95;;
51298;SDS011;37382;45.192;9.790;2023-04-06T07:18:33;16.85;;;8.63;;
51298;SDS011;37382;45.192;9.790;2023-04-06T07:21:03;22.85;;;8.32;;
51298;SDS011;37382;45.192;9.790;2023-04-06T07:23:31;16.90;;;8.38;;
51298;SDS011;37382;45.192;9.790;2023-04-06T07:25:59;13.55;;;7.97;;
51298;SDS011;37382;45.192;9.790;2023-04-06T07:28:26;20.50;;;8.52;;
51298;SDS011;37382;45.192;9.790;2023-04-06T07:30:55;18.25;;;8.90;;
51298;SDS011;37382;45.192;9.790;2023-04-06T07:33:22;13.05;;;7.95;;
51298;SDS011;37382;45.192;9.790;2023-04-06T07:35:50;17.40;;;8.77;;
51298;SDS011;37382;45.192;9.790;2023-04-06T07:38:19;13.43;;;8.82;;
51298;SDS011;37382;45.192;9.790;2023-04-06T07:40:48;13.30;;;8.70;;
51298;SDS011;37382;45.192;9.790;2023-04-06T07:43:15;14.32;;;8.75;;
51298;SDS011;37382;45.192;9.790;2023-04-06T07:45:44;12.60;;;8.50;;
51298;SDS011;37382;45.192;9.790;2023-04-06T07:48:15;13.80;;;8.20;;
51298;SDS011;37382;45.192;9.790;2023-04-06T07:50:44;16.77;;;7.60;;
51298;SDS011;37382;45.192;9.790;2023-04-06T07:53:12;19.45;;;7.97;;
51298;SDS011;37382;45.192;9.790;2023-04-06T07:55:40;14.73;;;7.72;;
51298;SDS011;37382;45.192;9.790;2023-04-06T07:58:08;19.10;;;8.77;;
51298;SDS011;37382;45.192;9.790;2023-04-06T08:00:36;21.23;;;8.63;;
51298;SDS011;37382;45.192;9.790;2023-04-06T08:03:04;17.70;;;9.02;;
51298;SDS011;37382;45.192;9.790;2023-04-06T08:05:32;15.68;;;8.50;;
51298;SDS011;37382;45.192;9.790;2023-04-06T08:08:00;19.42;;;9.02;;
51298;SDS011;37382;45.192;9.790;2023-04-06T08:10:27;19.15;;;8.73;;
51298;SDS011;37382;45.192;9.790;2023-04-06T08:12:55;12.68;;;7.05;;
51298;SDS011;37382;45.192;9.790;2023-04-06T08:15:22;13.43;;;6.93;;
51298;SDS011;37382;45.192;9.790;2023-04-06T08:17:50;9.77;;;6.38;;
51298;SDS011;37382;45.192;9.790;2023-04-06T08:20:18;10.57;;;6.20;;
51298;SDS011;37382;45.192;9.790;2023-04-06T08:22:45;18.67;;;5.80;;
51298;SDS011;37382;45.192;9.790;2023-04-06T08:25:12;11.18;;;5.80;;
51298;SDS011;37382;45.192;9.790;2023-04-06T08:27:40;13.35;;;6.13;;
51298;SDS011;37382;45.192;9.790;2023-04-06T08:30:08;14.00;;;7.18;;
51298;SDS011;37382;45.192;9.790;2023-04-06T08:32:36;14.20;;;6.68;;
51298;SDS011;37382;45.192;9.790;2023-04-06T08:35:04;8.68;;;5.90;;
51298;SDS011;37382;45.192;9.790;2023-04-06T08:37:31;8.13;;;5.45;;
51298;SDS011;37382;45.192;9.790;2023-04-06T08:39:59;16.30;;;6.10;;
51298;SDS011;37382;45.192;9.790;2023-04-06T08:42:27;19.77;;;6.18;;
51298;SDS011;37382;45.192;9.790;2023-04-06T08:44:58;15.25;;;6.22;;
51298;SDS011;37382;45.192;9.790;2023-04-06T08:47:27;9.73;;;5.78;;
51298;SDS011;37382;45.192;9.790;2023-04-06T08:49:55;15.00;;;6.63;;
51298;SDS011;37382;45.192;9.790;2023-04-06T08:52:23;23.17;;;6.93;;
51298;SDS011;37382;45.192;9.790;2023-04-06T08:54:53;14.93;;;6.97;;
51298;SDS011;37382;45.192;9.790;2023-04-06T08:57:21;11.82;;;6.90;;
51298;SDS011;37382;45.192;9.790;2023-04-06T08:59:50;9.48;;;6.15;;
51298;SDS011;37382;45.192;9.790;2023-04-06T09:02:19;13.73;;;6.15;;
51298;SDS011;37382;45.192;9.790;2023-04-06T09:04:47;10.68;;;6.13;;
51298;SDS011;37382;45.192;9.790;2023-04-06T09:07:16;15.13;;;5.97;;
51298;SDS011;37382;45.192;9.790;2023-04-06T09:09:44;14.20;;;6.28;;
51298;SDS011;37382;45.192;9.790;2023-04-06T09:12:22;10.60;;;5.83;;
51298;SDS011;37382;45.192;9.790;2023-04-06T09:14:54;17.55;;;6.50;;
51298;SDS011;37382;45.192;9.790;2023-04-06T09:17:24;7.55;;;5.40;;
51298;SDS011;37382;45.192;9.790;2023-04-06T09:19:53;10.57;;;6.00;;
51298;SDS011;37382;45.192;9.790;2023-04-06T09:22:22;10.45;;;6.20;;
51298;SDS011;37382;45.192;9.790;2023-04-06T09:24:53;12.55;;;6.18;;
51298;SDS011;37382;45.192;9.790;2023-04-06T09:27:31;19.35;;;6.75;;
51298;SDS011;37382;45.192;9.790;2023-04-06T09:30:05;12.70;;;6.38;;
51298;SDS011;37382;45.192;9.790;2023-04-06T09:35:18;6.68;;;4.55;;
51298;SDS011;37382;45.192;9.790;2023-04-06T09:37:50;9.10;;;5.40;;
51298;SDS011;37382;45.192;9.790;2023-04-06T09:40:19;11.70;;;5.22;;
51298;SDS011;37382;45.192;9.790;2023-04-06T09:42:48;11.07;;;4.63;;
51298;SDS011;37382;45.192;9.790;2023-04-06T09:45:19;12.73;;;5.03;;
51298;SDS011;37382;45.192;9.790;2023-04-06T09:47:48;8.85;;;5.05;;
51298;SDS011;37382;45.192;9.790;2023-04-06T09:50:18;31.67;;;6.17;;
51298;SDS011;37382;45.192;9.790;2023-04-06T09:52:48;18.35;;;5.97;;
51298;SDS011;37382;45.192;9.790;2023-04-06T09:55:20;12.02;;;5.80;;
51298;SDS011;37382;45.192;9.790;2023-04-06T09:58:06;9.88;;;5.55;;
51298;SDS011;37382;45.192;9.790;2023-04-06T10:00:43;11.23;;;4.63;;
51298;SDS011;37382;45.192;9.790;2023-04-06T10:03:17;8.88;;;5.28;;
51298;SDS011;37382;45.192;9.790;2023-04-06T10:05:56;11.73;;;4.93;;
51298;SDS011;37382;45.192;9.790;2023-04-06T10:08:27;11.02;;;4.88;;
51298;SDS011;37382;45.192;9.790;2023-04-06T10:13:27;14.02;;;5.65;;
51298;SDS011;37382;45.192;9.790;2023-04-06T10:15:55;10.32;;;6.70;;
51298;SDS011;37382;45.192;9.790;2023-04-06T10:18:24;8.93;;;6.88;;
51298;SDS011;37382;45.192;9.790;2023-04-06T10:21:04;10.50;;;6.35;;
51298;SDS011;37382;45.192;9.790;2023-04-06T10:23:46;11.13;;;6.53;;
51298;SDS011;37382;45.192;9.790;2023-04-06T10:26:17;9.07;;;6.70;;
51298;SDS011;37382;45.192;9.790;2023-04-06T10:28:48;10.32;;;6.28;;
51298;SDS011;37382;45.192;9.790;2023-04-06T10:31:27;10.38;;;6.25;;
51298;SDS011;37382;45.192;9.790;2023-04-06T10:33:59;12.90;;;7.25;;
51298;SDS011;37382;45.192;9.790;2023-04-06T10:36:28;10.02;;;6.72;;
51298;SDS011;37382;45.192;9.790;2023-04-06T10:39:01;10.70;;;7.18;;
51298;SDS011;37382;45.192;9.790;2023-04-06T10:41:34;14.55;;;6.82;;
51298;SDS011;37382;45.192;9.790;2023-04-06T10:44:03;12.95;;;7.40;;
51298;SDS011;37382;45.192;9.790;2023-04-06T10:46:32;9.43;;;6.68;;
51298;SDS011;37382;45.192;9.790;2023-04-06T10:49:11;15.77;;;6.85;;
51298;SDS011;37382;45.192;9.790;2023-04-06T10:51:41;9.35;;;6.30;;
51298;SDS011;37382;45.192;9.790;2023-04-06T10:54:09;10.77;;;7.05;;
51298;SDS011;37382;45.192;9.790;2023-04-06T10:56:38;9.05;;;7.03;;
51298;SDS011;37382;45.192;9.790;2023-04-06T10:59:06;18.38;;;7.38;;
51298;SDS011;37382;45.192;9.790;2023-04-06T11:01:34;10.15;;;6.95;;
51298;SDS011;37382;45.192;9.790;2023-04-06T11:04:02;11.10;;;6.65;;
51298;SDS011;37382;45.192;9.790;2023-04-06T11:06:30;9.68;;;6.38;;
51298;SDS011;37382;45.192;9.790;2023-04-06T11:08:59;9.23;;;7.00;;
51298;SDS011;37382;45.192;9.790;2023-04-06T11:11:27;10.07;;;6.20;;
51298;SDS011;37382;45.192;9.790;2023-04-06T11:13:55;7.75;;;5.95;;
51298;SDS011;37382;45.192;9.790;2023-04-06T11:16:25;7.85;;;6.03;;
51298;SDS011;37382;45.192;9.790;2023-04-06T11:19:05;8.10;;;5.35;;
51298;SDS011;37382;45.192;9.790;2023-04-06T11:21:40;6.90;;;5.82;;
51298;SDS011;37382;45.192;9.790;2023-04-06T11:24:18;11.40;;;5.72;;
51298;SDS011;37382;45.192;9.790;2023-04-06T11:26:54;7.20;;;5.22;;
51298;SDS011;37382;45.192;9.790;2023-04-06T11:29:28;7.70;;;5.28;;
51298;SDS011;37382;45.192;9.790;2023-04-06T11:32:05;10.27;;;5.72;;
51298;SDS011;37382;45.192;9.790;2023-04-06T11:34:35;13.00;;;5.72;;
51298;SDS011;37382;45.192;9.790;2023-04-06T11:37:09;8.10;;;5.93;;
51298;SDS011;37382;45.192;9.790;2023-04-06T11:39:39;7.18;;;5.60;;
51298;SDS011;37382;45.192;9.790;2023-04-06T11:42:08;13.68;;;6.03;;
51298;SDS011;37382;45.192;9.790;2023-04-06T11:44:42;9.23;;;6.45;;
51298;SDS011;37382;45.192;9.790;2023-04-06T11:47:13;6.38;;;5.72;;
51298;SDS011;37382;45.192;9.790;2023-04-06T11:49:41;11.13;;;6.70;;
51298;SDS011;37382;45.192;9.790;2023-04-06T11:52:19;13.30;;;7.10;;
51298;SDS011;37382;45.192;9.790;2023-04-06T11:54:50;15.25;;;7.25;;
51298;SDS011;37382;45.192;9.790;2023-04-06T11:57:19;11.55;;;7.43;;
51298;SDS011;37382;45.192;9.790;2023-04-06T11:59:48;8.70;;;6.60;;
51298;SDS011;37382;45.192;9.790;2023-04-06T12:02:16;9.43;;;6.85;;
51298;SDS011;37382;45.192;9.790;2023-04-06T12:04:45;15.25;;;6.53;;
51298;SDS011;37382;45.192;9.790;2023-04-06T12:07:13;11.98;;;6.55;;
51298;SDS011;37382;45.192;9.790;2023-04-06T12:09:40;12.70;;;6.82;;
51298;SDS011;37382;45.192;9.790;2023-04-06T12:12:08;8.95;;;6.60;;
51298;SDS011;37382;45.192;9.790;2023-04-06T12:14:35;13.68;;;6.60;;
51298;SDS011;37382;45.192;9.790;2023-04-06T12:17:02;12.50;;;6.75;;
51298;SDS011;37382;45.192;9.790;2023-04-06T12:19:30;11.40;;;7.00;;
51298;SDS011;37382;45.192;9.790;2023-04-06T12:21:58;8.02;;;6.28;;
51298;SDS011;37382;45.192;9.790;2023-04-06T12:24:27;11.90;;;6.72;;
51298;SDS011;37382;45.192;9.790;2023-04-06T12:26:55;19.48;;;7.15;;
51298;SDS011;37382;45.192;9.790;2023-04-06T12:29:37;9.27;;;5.88;;
51298;SDS011;37382;45.192;9.790;2023-04-06T12:32:06;9.75;;;6.35;;
51298;SDS011;37382;45.192;9.790;2023-04-06T12:34:33;10.50;;;6.45;;
51298;SDS011;37382;45.192;9.790;2023-04-06T12:37:01;8.95;;;6.30;;
51298;SDS011;37382;45.192;9.790;2023-04-06T12:39:29;8.27;;;6.20;;
51298;SDS011;37382;45.192;9.790;2023-04-06T12:41:57;10.80;;;6.35;;
51298;SDS011;37382;45.192;9.790;2023-04-06T12:44:25;17.63;;;6.30;;
51298;SDS011;37382;45.192;9.790;2023-04-06T12:46:53;12.50;;;6.13;;
51298;SDS011;37382;45.192;9.790;2023-04-06T12:49:21;10.60;;;6.10;;
51298;SDS011;37382;45.192;9.790;2023-04-06T12:51:48;9.23;;;6.30;;
51298;SDS011;37382;45.192;9.790;2023-04-06T12:54:17;9.05;;;6.40;;
51298;SDS011;37382;45.192;9.790;2023-04-06T12:56:44;13.63;;;6.22;;
51298;SDS011;37382;45.192;9.790;2023-04-06T12:59:12;7.50;;;5.60;;
51298;SDS011;37382;45.192;9.790;2023-04-06T13:01:40;7.90;;;5.85;;
51298;SDS011;37382;45.192;9.790;2023-04-06T13:04:08;14.18;;;5.80;;
51298;SDS011;37382;45.192;9.790;2023-04-06T13:06:36;11.65;;;6.22;;
51298;SDS011;37382;45.192;9.790;2023-04-06T13:09:03;9.38;;;6.10;;
51298;SDS011;37382;45.192;9.790;2023-04-06T13:11:32;11.45;;;6.10;;
51298;SDS011;37382;45.192;9.790;2023-04-06T13:13:59;7.75;;;6.20;;
51298;SDS011;37382;45.192;9.790;2023-04-06T13:16:27;10.43;;;6.45;;
51298;SDS011;37382;45.192;9.790;2023-04-06T13:18:55;13.68;;;6.05;;
51298;SDS011;37382;45.192;9.790;2023-04-06T13:21:23;10.27;;;6.55;;
51298;SDS011;37382;45.192;9.790;2023-04-06T13:23:51;9.88;;;6.40;;
51298;SDS011;37382;45.192;9.790;2023-04-06T13:26:18;8.07;;;5.60;;
51298;SDS011;37382;45.192;9.790;2023-04-06T13:28:46;14.02;;;6.15;;
51298;SDS011;37382;45.192;9.790;2023-04-06T13:31:14;9.65;;;6.15;;
51298;SDS011;37382;45.192;9.790;2023-04-06T13:33:42;19.35;;;7.00;;
51298;SDS011;37382;45.192;9.790;2023-04-06T13:36:10;12.07;;;5.95;;
51298;SDS011;37382;45.192;9.790;2023-04-06T13:38:37;11.75;;;5.47;;
51298;SDS011;37382;45.192;9.790;2023-04-06T13:41:06;10.32;;;6.07;;
51298;SDS011;37382;45.192;9.790;2023-04-06T13:43:33;9.65;;;5.30;;
51298;SDS011;37382;45.192;9.790;2023-04-06T13:46:02;10.60;;;5.95;;
51298;SDS011;37382;45.192;9.790;2023-04-06T13:48:30;10.63;;;6.47;;
51298;SDS011;37382;45.192;9.790;2023-04-06T13:50:57;10.23;;;6.30;;
51298;SDS011;37382;45.192;9.790;2023-04-06T13:53:25;10.73;;;5.93;;
51298;SDS011;37382;45.192;9.790;2023-04-06T13:55:53;12.95;;;6.10;;
51298;SDS011;37382;45.192;9.790;2023-04-06T13:58:22;10.52;;;6.38;;
51298;SDS011;37382;45.192;9.790;2023-04-06T14:00:50;14.05;;;6.50;;
51298;SDS011;37382;45.192;9.790;2023-04-06T14:03:19;11.60;;;6.18;;
51298;SDS011;37382;45.192;9.790;2023-04-06T14:05:48;6.20;;;5.55;;
51298;SDS011;37382;45.192;9.790;2023-04-06T14:08:16;17.98;;;6.63;;
51298;SDS011;37382;45.192;9.790;2023-04-06T14:10:43;11.38;;;6.10;;
51298;SDS011;37382;45.192;9.790;2023-04-06T14:13:11;9.73;;;6.63;;
51298;SDS011;37382;45.192;9.790;2023-04-06T14:15:38;12.63;;;6.05;;
51298;SDS011;37382;45.192;9.790;2023-04-06T14:18:07;10.90;;;7.00;;
51298;SDS011;37382;45.192;9.790;2023-04-06T14:20:35;8.90;;;6.45;;
51298;SDS011;37382;45.192;9.790;2023-04-06T14:23:02;12.23;;;6.20;;
51298;SDS011;37382;45.192;9.790;2023-04-06T14:25:30;11.70;;;6.18;;
51298;SDS011;37382;45.192;9.790;2023-04-06T14:27:59;16.10;;;6.13;;
51298;SDS011;37382;45.192;9.790;2023-04-06T14:30:27;12.75;;;5.90;;
51298;SDS011;37382;45.192;9.790;2023-04-06T14:32:58;11.02;;;5.85;;
51298;SDS011;37382;45.192;9.790;2023-04-06T14:35:26;9.85;;;6.38;;
51298;SDS011;37382;45.192;9.790;2023-04-06T14:37:55;7.75;;;6.13;;
51298;SDS011;37382;45.192;9.790;2023-04-06T14:40:27;11.50;;;6.28;;
51298;SDS011;37382;45.192;9.790;2023-04-06T14:42:54;10.10;;;6.00;;
51298;SDS011;37382;45.192;9.790;2023-04-06T14:45:23;19.05;;;6.80;;
51298;SDS011;37382;45.192;9.790;2023-04-06T14:47:50;11.48;;;7.35;;
51298;SDS011;37382;45.192;9.790;2023-04-06T14:50:19;12.32;;;7.13;;
51298;SDS011;37382;45.192;9.790;2023-04-06T14:52:47;12.55;;;7.80;;
51298;SDS011;37382;45.192;9.790;2023-04-06T14:55:14;15.93;;;7.95;;
51298;SDS011;37382;45.192;9.790;2023-04-06T14:57:42;16.95;;;7.82;;
51298;SDS011;37382;45.192;9.790;2023-04-06T15:00:10;16.67;;;8.75;;
51298;SDS011;37382;45.192;9.790;2023-04-06T15:02:38;12.00;;;7.95;;
51298;SDS011;37382;45.192;9.790;2023-04-06T15:05:07;12.05;;;8.30;;
51298;SDS011;37382;45.192;9.790;2023-04-06T15:07:35;19.83;;;8.65;;
51298;SDS011;37382;45.192;9.790;2023-04-06T15:10:03;14.30;;;9.15;;
51298;SDS011;37382;45.192;9.790;2023-04-06T15:12:32;11.80;;;8.45;;
51298;SDS011;37382;45.192;9.790;2023-04-06T15:15:02;22.92;;;9.60;;
51298;SDS011;37382;45.192;9.790;2023-04-06T15:17:32;19.13;;;8.38;;
51298;SDS011;37382;45.192;9.790;2023-04-06T15:19:59;12.60;;;9.43;;
51298;SDS011;37382;45.192;9.790;2023-04-06T15:22:27;15.95;;;8.30;;
51298;SDS011;37382;45.192;9.790;2023-04-06T15:24:55;11.65;;;8.55;;
51298;SDS011;37382;45.192;9.790;2023-04-06T15:27:22;18.70;;;9.32;;
51298;SDS011;37382;45.192;9.790;2023-04-06T15:29:50;15.68;;;9.45;;
51298;SDS011;37382;45.192;9.790;2023-04-06T15:32:17;13.30;;;9.00;;
51298;SDS011;37382;45.192;9.790;2023-04-06T15:34:45;15.82;;;8.50;;
51298;SDS011;37382;45.192;9.790;2023-04-06T15:37:12;20.20;;;9.75;;
51298;SDS011;37382;45.192;9.790;2023-04-06T15:39:40;12.98;;;9.82;;
51298;SDS011;37382;45.192;9.790;2023-04-06T15:42:07;13.73;;;9.32;;
51298;SDS011;37382;45.192;9.790;2023-04-06T15:44:35;13.68;;;8.82;;
51298;SDS011;37382;45.192;9.790;2023-04-06T15:47:02;15.40;;;8.70;;
51298;SDS011;37382;45.192;9.790;2023-04-06T15:49:30;18.95;;;9.88;;
51298;SDS011;37382;45.192;9.790;2023-04-06T15:51:58;24.77;;;9.40;;
51298;SDS011;37382;45.192;9.790;2023-04-06T15:54:26;17.35;;;9.82;;
51298;SDS011;37382;45.192;9.790;2023-04-06T15:56:53;11.50;;;8.55;;
51298;SDS011;37382;45.192;9.790;2023-04-06T15:59:22;17.92;;;8.57;;
51298;SDS011;37382;45.192;9.790;2023-04-06T16:01:50;15.60;;;8.95;;
51298;SDS011;37382;45.192;9.790;2023-04-06T16:04:18;16.83;;;7.97;;
51298;SDS011;37382;45.192;9.790;2023-04-06T16:06:45;13.98;;;9.32;;
51298;SDS011;37382;45.192;9.790;2023-04-06T16:09:13;12.35;;;10.25;;
51298;SDS011;37382;45.192;9.790;2023-04-06T16:11:42;14.48;;;9.45;;
51298;SDS011;37382;45.192;9.790;2023-04-06T16:14:10;15.95;;;8.40;;
51298;SDS011;37382;45.192;9.790;2023-04-06T16:16:37;13.65;;;9.07;;
51298;SDS011;37382;45.192;9.790;2023-04-06T16:19:05;18.42;;;9.20;;
51298;SDS011;37382;45.192;9.790;2023-04-06T16:21:34;12.25;;;8.25;;
51298;SDS011;37382;45.192;9.790;2023-04-06T16:24:01;14.13;;;8.55;;
51298;SDS011;37382;45.192;9.790;2023-04-06T16:26:30;15.60;;;8.25;;
51298;SDS011;37382;45.192;9.790;2023-04-06T16:28:57;13.75;;;9.63;;
51298;SDS011;37382;45.192;9.790;2023-04-06T16:31:25;17.15;;;10.05;;
51298;SDS011;37382;45.192;9.790;2023-04-06T16:33:53;13.43;;;9.30;;
51298;SDS011;37382;45.192;9.790;2023-04-06T16:36:25;18.77;;;9.05;;
51298;SDS011;37382;45.192;9.790;2023-04-06T16:38:55;15.00;;;9.38;;
51298;SDS011;37382;45.192;9.790;2023-04-06T16:41:23;15.82;;;9.15;;
51298;SDS011;37382;45.192;9.790;2023-04-06T16:43:53;12.32;;;8.77;;
51298;SDS011;37382;45.192;9.790;2023-04-06T16:46:29;16.95;;;9.27;;
51298;SDS011;37382;45.192;9.790;2023-04-06T16:48:58;11.95;;;9.32;;
51298;SDS011;37382;45.192;9.790;2023-04-06T16:51:26;16.27;;;10.23;;
51298;SDS011;37382;45.192;9.790;2023-04-06T16:53:54;16.20;;;9.75;;
51298;SDS011;37382;45.192;9.790;2023-04-06T16:56:22;11.98;;;9.90;;
51298;SDS011;37382;45.192;9.790;2023-04-06T16:58:49;18.00;;;9.98;;
51298;SDS011;37382;45.192;9.790;2023-04-06T17:01:21;16.33;;;10.02;;
51298;SDS011;37382;45.192;9.790;2023-04-06T17:03:50;14.35;;;10.05;;
51298;SDS011;37382;45.192;9.790;2023-04-06T17:06:19;22.63;;;8.48;;
51298;SDS011;37382;45.192;9.790;2023-04-06T17:08:46;22.85;;;9.95;;
51298;SDS011;37382;45.192;9.790;2023-04-06T17:11:14;15.38;;;9.27;;
51298;SDS011;37382;45.192;9.790;2023-04-06T17:13:50;15.20;;;9.93;;
51298;SDS011;37382;45.192;9.790;2023-04-06T17:16:17;37.08;;;10.80;;
51298;SDS011;37382;45.192;9.790;2023-04-06T17:18:45;33.97;;;10.98;;
51298;SDS011;37382;45.192;9.790;2023-04-06T17:21:13;26.15;;;11.32;;
51298;SDS011;37382;45.192;9.790;2023-04-06T17:23:43;22.95;;;11.80;;
51298;SDS011;37382;45.192;9.790;2023-04-06T17:26:10;33.65;;;12.02;;
51298;SDS011;37382;45.192;9.790;2023-04-06T17:28:38;26.90;;;11.48;;
51298;SDS011;37382;45.192;9.790;2023-04-06T17:31:07;21.60;;;11.13;;
51298;SDS011;37382;45.192;9.790;2023-04-06T17:33:39;16.73;;;9.95;;
51298;SDS011;37382;45.192;9.790;2023-04-06T17:36:07;15.00;;;9.75;;
51298;SDS011;37382;45.192;9.790;2023-04-06T17:38:38;18.08;;;10.18;;
51298;SDS011;37382;45.192;9.790;2023-04-06T17:41:10;14.68;;;9.45;;
51298;SDS011;37382;45.192;9.790;2023-04-06T17:43:39;12.82;;;9.05;;
51298;SDS011;37382;45.192;9.790;2023-04-06T17:46:07;16.30;;;9.73;;
51298;SDS011;37382;45.192;9.790;2023-04-06T17:48:35;21.20;;;10.77;;
51298;SDS011;37382;45.192;9.790;2023-04-06T17:51:03;25.30;;;11.77;;
51298;SDS011;37382;45.192;9.790;2023-04-06T17:53:32;24.55;;;11.93;;
51298;SDS011;37382;45.192;9.790;2023-04-06T17:56:01;22.35;;;12.48;;
51298;SDS011;37382;45.192;9.790;2023-04-06T17:58:29;19.65;;;11.45;;
51298;SDS011;37382;45.192;9.790;2023-04-06T18:00:57;25.13;;;12.00;;
51298;SDS011;37382;45.192;9.790;2023-04-06T18:03:24;20.13;;;12.27;;
51298;SDS011;37382;45.192;9.790;2023-04-06T18:05:53;23.50;;;11.95;;
51298;SDS011;37382;45.192;9.790;2023-04-06T18:08:20;31.65;;;20.60;;
51298;SDS011;37382;45.192;9.790;2023-04-06T18:10:48;37.50;;;24.85;;
51298;SDS011;37382;45.192;9.790;2023-04-06T18:13:16;36.08;;;17.83;;
51298;SDS011;37382;45.192;9.790;2023-04-06T18:15:43;26.15;;;17.02;;
51298;SDS011;37382;45.192;9.790;2023-04-06T18:18:11;29.33;;;16.13;;
51298;SDS011;37382;45.192;9.790;2023-04-06T18:20:39;24.85;;;15.75;;
51298;SDS011;37382;45.192;9.790;2023-04-06T18:23:08;24.60;;;16.50;;
51298;SDS011;37382;45.192;9.790;2023-04-06T18:25:39;28.10;;;15.80;;
51298;SDS011;37382;45.192;9.790;2023-04-06T18:28:07;20.90;;;13.80;;
51298;SDS011;37382;45.192;9.790;2023-04-06T18:30:35;19.15;;;11.15;;
51298;SDS011;37382;45.192;9.790;2023-04-06T18:33:03;17.50;;;11.35;;
51298;SDS011;37382;45.192;9.790;2023-04-06T18:35:32;15.60;;;11.05;;
51298;SDS011;37382;45.192;9.790;2023-04-06T18:37:59;16.05;;;11.20;;
51298;SDS011;37382;45.192;9.790;2023-04-06T18:42:58;20.33;;;11.85;;
51298;SDS011;37382;45.192;9.790;2023-04-06T18:45:27;18.55;;;12.02;;
51298;SDS011;37382;45.192;9.790;2023-04-06T18:47:54;19.00;;;12.63;;
51298;SDS011;37382;45.192;9.790;2023-04-06T18:50:23;23.98;;;12.45;;
51298;SDS011;37382;45.192;9.790;2023-04-06T18:52:51;36.22;;;14.05;;
51298;SDS011;37382;45.192;9.790;2023-04-06T18:55:19;28.70;;;15.30;;
51298;SDS011;37382;45.192;9.790;2023-04-06T18:57:47;20.25;;;14.13;;
51298;SDS011;37382;45.192;9.790;2023-04-06T19:00:15;27.05;;;14.23;;
51298;SDS011;37382;45.192;9.790;2023-04-06T19:02:43;25.20;;;14.98;;
51298;SDS011;37382;45.192;9.790;2023-04-06T19:05:12;26.27;;;15.73;;